createdAt,value
2019-04-07T00:01:52.877Z,5.80
2019-04-07T00:06:56.525Z,5.70
2019-04-07T00:12:00.566Z,5.60
2019-04-07T00:17:04.263Z,5.60
2019-04-07T00:22:07.985Z,5.30
2019-04-07T00:27:11.610Z,4.90
2019-04-07T00:32:15.180Z,5.00
2019-04-07T00:37:18.880Z,4.90
2019-04-07T00:42:22.634Z,4.90
2019-04-07T00:47:26.326Z,4.40
2019-04-07T00:52:30.109Z,4.20
2019-04-07T00:57:33.797Z,3.80
2019-04-07T01:02:37.609Z,3.70
2019-04-07T01:07:42.104Z,3.40
2019-04-07T01:12:45.892Z,3.80
2019-04-07T01:17:49.908Z,4.20
2019-04-07T01:22:53.723Z,3.90
2019-04-07T01:27:57.798Z,3.60
2019-04-07T01:33:02.166Z,3.60
2019-04-07T01:38:06.053Z,3.80
2019-04-07T01:43:11.257Z,3.70
2019-04-07T01:48:19.303Z,3.30
2019-04-07T01:53:25.359Z,3.40
2019-04-07T01:58:30.824Z,3.40
2019-04-07T02:03:38.909Z,3.60
2019-04-07T02:08:50.578Z,3.70
2019-04-07T02:13:59.269Z,3.50
2019-04-07T02:19:17.417Z,3.70
2019-04-07T02:24:23.415Z,3.50
2019-04-07T02:29:44.844Z,3.40
2019-04-07T02:35:06.084Z,3.60
2019-04-07T02:40:15.093Z,3.50
2019-04-07T02:45:20.427Z,3.10
2019-04-07T02:50:38.584Z,3.20
2019-04-07T02:56:00.430Z,3.00
2019-04-07T03:01:09.630Z,3.20
2019-04-07T03:06:39.411Z,3.30
2019-04-07T03:11:49.129Z,2.90
2019-04-07T03:16:54.381Z,2.30
2019-04-07T03:22:02.849Z,2.20
2019-04-07T03:27:14.313Z,2.60
2019-04-07T03:32:38.870Z,2.70
2019-04-07T03:37:47.182Z,2.70
2019-04-07T03:42:55.184Z,2.60
2019-04-07T03:48:04.152Z,2.60
2019-04-07T03:53:10.202Z,2.60
2019-04-07T03:58:21.217Z,2.40
2019-04-07T04:03:26.630Z,2.60
2019-04-07T04:08:38.318Z,2.50
2019-04-07T04:13:44.253Z,2.50
2019-04-07T04:18:48.269Z,2.50
2019-04-07T04:23:52.984Z,2.60
2019-04-07T04:28:56.683Z,2.60
2019-04-07T04:34:01.384Z,2.60
2019-04-07T04:39:08.136Z,2.70
2019-04-07T04:44:11.900Z,2.60
2019-04-07T04:49:15.469Z,2.90
2019-04-07T04:54:19.375Z,2.90
2019-04-07T04:59:22.980Z,3.10
2019-04-07T05:04:26.834Z,3.60
2019-04-07T05:09:43.197Z,4.10
2019-04-07T05:14:35.813Z,4.30
2019-04-07T05:19:42.612Z,4.70
2019-04-07T05:24:44.665Z,5.00
2019-04-07T05:29:49.433Z,5.70
2019-04-07T05:34:53.053Z,6.50
2019-04-07T05:39:56.664Z,6.90
2019-04-07T05:45:00.617Z,6.90
2019-04-07T05:50:06.340Z,7.60
2019-04-07T05:55:10.849Z,8.40
2019-04-07T06:00:16.714Z,9.00
2019-04-07T06:05:21.180Z,9.60
2019-04-07T06:10:28.514Z,10.10
2019-04-07T06:15:30.293Z,10.70
2019-04-07T06:20:34.364Z,10.90
2019-04-07T06:25:41.694Z,10.80
2019-04-07T06:30:43.966Z,11.40
2019-04-07T06:35:47.748Z,11.80
2019-04-07T06:40:56.520Z,12.20
2019-04-07T06:45:58.487Z,13.00
2019-04-07T06:51:04.973Z,13.20
2019-04-07T06:56:10.217Z,13.90
2019-04-07T07:01:27.541Z,14.10
2019-04-07T07:06:38.539Z,14.10
2019-04-07T07:12:00.622Z,14.50
2019-04-07T07:17:22.465Z,14.80
2019-04-07T07:22:28.456Z,14.90
2019-04-07T07:27:32.804Z,14.80
2019-04-07T07:32:37.301Z,15.00
2019-04-07T07:37:41.049Z,15.20
2019-04-07T07:42:45.825Z,14.70
2019-04-07T07:47:53.234Z,13.70
2019-04-07T07:52:56.082Z,13.80
2019-04-07T07:57:59.928Z,13.90
2019-04-07T08:03:03.650Z,13.90
2019-04-07T08:08:07.251Z,13.60
2019-04-07T08:13:11.316Z,13.60
2019-04-07T08:18:15.646Z,13.70
2019-04-07T08:23:19.821Z,13.70
2019-04-07T08:28:24.291Z,13.90
2019-04-07T08:33:29.532Z,14.10
2019-04-07T08:38:33.403Z,14.30
2019-04-07T08:43:37.371Z,14.50
2019-04-07T08:48:40.992Z,14.70
2019-04-07T08:53:45.131Z,14.70
2019-04-07T08:58:49.067Z,15.00
2019-04-07T09:03:52.744Z,15.30
2019-04-07T09:08:56.452Z,15.50
2019-04-07T09:14:00.193Z,15.60
2019-04-07T09:19:18.190Z,15.20
2019-04-07T09:24:32.748Z,15.60
2019-04-07T09:29:38.685Z,15.60
2019-04-07T09:34:54.008Z,15.80
2019-04-07T09:40:02.049Z,16.00
2019-04-07T09:45:25.432Z,16.10
2019-04-07T09:50:37.537Z,16.30
2019-04-07T09:55:48.944Z,16.50
2019-04-07T10:01:08.091Z,16.60
2019-04-07T10:06:22.307Z,16.60
2019-04-07T10:11:43.949Z,16.60
2019-04-07T10:16:49.542Z,16.70
2019-04-07T10:22:12.317Z,17.00
2019-04-07T10:27:20.489Z,17.20
2019-04-07T10:32:28.431Z,17.10
2019-04-07T10:37:34.423Z,17.40
2019-04-07T10:42:40.213Z,17.40
2019-04-07T10:47:55.080Z,17.90
2019-04-07T10:53:03.737Z,17.70
2019-04-07T10:58:23.043Z,17.90
2019-04-07T11:03:44.446Z,17.80
2019-04-07T11:08:55.527Z,18.10
2019-04-07T11:14:09.778Z,18.30
2019-04-07T11:19:28.383Z,17.90
2019-04-07T11:24:49.971Z,18.50
2019-04-07T11:29:58.449Z,18.20
2019-04-07T11:35:22.191Z,18.50
2019-04-07T11:40:43.278Z,17.70
2019-04-07T11:46:02.887Z,18.50
2019-04-07T11:51:11.873Z,18.30
2019-04-07T11:56:20.640Z,18.40
2019-04-07T12:01:26.159Z,17.70
2019-04-07T12:06:31.579Z,18.20
2019-04-07T12:11:42.652Z,18.90
2019-04-07T12:17:07.568Z,18.80
2019-04-07T12:22:21.812Z,17.80
2019-04-07T12:27:45.168Z,18.00
2019-04-07T12:32:59.791Z,18.10
2019-04-07T12:38:17.632Z,18.40
2019-04-07T12:43:37.850Z,18.30
2019-04-07T12:48:46.874Z,18.10
2019-04-07T12:53:55.253Z,18.10
2019-04-07T12:59:03.350Z,18.00
2019-04-07T13:04:17.864Z,16.70
2019-04-07T13:09:39.139Z,16.20
2019-04-07T13:14:47.593Z,16.10
2019-04-07T13:19:53.422Z,16.30
2019-04-07T13:25:01.492Z,16.90
2019-04-07T13:30:11.650Z,16.10
2019-04-07T13:35:25.778Z,15.60
2019-04-07T13:40:47.300Z,15.60
2019-04-07T13:45:58.835Z,15.90
2019-04-07T13:51:19.064Z,16.90
2019-04-07T13:56:39.672Z,17.20
2019-04-07T14:01:52.422Z,17.10
2019-04-07T14:06:57.690Z,17.20
2019-04-07T14:12:17.873Z,16.70
2019-04-07T14:17:29.693Z,15.90
2019-04-07T14:22:43.996Z,15.90
2019-04-07T14:27:49.313Z,16.00
2019-04-07T14:32:54.648Z,15.80
2019-04-07T14:37:59.848Z,15.80
2019-04-07T14:43:10.656Z,16.10
2019-04-07T14:48:16.195Z,15.80
2019-04-07T14:53:24.419Z,16.10
2019-04-07T14:58:51.307Z,15.60
2019-04-07T15:03:51.294Z,15.50
2019-04-07T15:08:56.656Z,16.10
2019-04-07T15:14:01.541Z,16.10
2019-04-07T15:19:05.690Z,16.10
2019-04-07T15:24:10.081Z,15.90
2019-04-07T15:29:14.595Z,15.40
2019-04-07T15:34:18.726Z,15.00
2019-04-07T15:39:22.675Z,15.10
2019-04-07T15:44:27.133Z,15.10
2019-04-07T15:49:31.041Z,15.20
2019-04-07T15:54:35.060Z,15.30
2019-04-07T15:59:39.441Z,15.20
2019-04-07T16:04:44.148Z,15.10
2019-04-07T16:09:52.786Z,15.00
2019-04-07T16:14:53.549Z,15.00
2019-04-07T16:19:58.605Z,14.80
2019-04-07T16:25:02.322Z,14.80
2019-04-07T16:30:11.304Z,14.70
2019-04-07T16:35:16.561Z,14.60
2019-04-07T16:40:21.731Z,14.40
2019-04-07T16:45:25.504Z,14.30
2019-04-07T16:50:30.170Z,14.10
2019-04-07T16:55:37.103Z,14.00
2019-04-07T17:00:41.840Z,13.90
2019-04-07T17:05:46.293Z,13.60
2019-04-07T17:10:50.821Z,13.50
2019-04-07T17:15:55.210Z,13.30
2019-04-07T17:20:59.388Z,13.30
2019-04-07T17:26:05.715Z,13.10
2019-04-07T17:31:08.997Z,13.10
2019-04-07T17:36:16.729Z,13.00
2019-04-07T17:41:18.408Z,13.10
2019-04-07T17:46:40.671Z,13.00
2019-04-07T17:52:02.265Z,12.70
2019-04-07T17:57:18.800Z,12.50
2019-04-07T18:02:29.337Z,12.40
2019-04-07T18:07:38.157Z,12.40
2019-04-07T18:12:47.871Z,12.40
2019-04-07T18:17:56.457Z,12.30
2019-04-07T18:23:11.067Z,12.30
2019-04-07T18:28:21.546Z,12.10
2019-04-07T18:33:32.456Z,11.80
2019-04-07T18:38:56.047Z,11.60
2019-04-07T18:44:05.631Z,11.30
2019-04-07T18:49:08.364Z,11.10
2019-04-07T18:54:13.768Z,11.00
2019-04-07T18:59:28.058Z,10.70
2019-04-07T19:04:42.353Z,10.30
2019-04-07T19:09:47.746Z,9.90
2019-04-07T19:15:02.360Z,10.00
2019-04-07T19:20:06.361Z,9.90
2019-04-07T19:25:21.540Z,9.90
2019-04-07T19:30:46.886Z,9.80
2019-04-07T19:36:04.805Z,9.50
2019-04-07T19:41:10.993Z,9.40
2019-04-07T19:46:30.222Z,9.30
2019-04-07T19:51:35.288Z,8.60
2019-04-07T19:56:52.768Z,8.70
2019-04-07T20:02:16.141Z,8.80
2019-04-07T20:07:31.399Z,8.90
2019-04-07T20:12:52.920Z,9.10
2019-04-07T20:18:00.916Z,9.30
2019-04-07T20:23:12.176Z,9.40
2019-04-07T20:28:23.547Z,9.40
2019-04-07T20:33:34.467Z,9.50
2019-04-07T20:38:40.178Z,9.50
2019-04-07T20:43:46.440Z,9.40
2019-04-07T20:49:09.969Z,9.40
2019-04-07T20:54:15.312Z,9.50
2019-04-07T20:59:46.968Z,9.10
2019-04-07T21:04:42.484Z,7.70
2019-04-07T21:10:06.553Z,7.90
2019-04-07T21:15:23.642Z,7.70
2019-04-07T21:20:20.388Z,6.90
2019-04-07T21:25:26.412Z,7.00
2019-04-07T21:30:34.437Z,7.10
2019-04-07T21:35:55.737Z,6.80
2019-04-07T21:41:12.243Z,7.00
2019-04-07T21:46:23.660Z,6.60
2019-04-07T21:51:32.974Z,6.70
2019-04-07T21:56:44.202Z,6.70
2019-04-07T22:02:00.675Z,6.70
2019-04-07T22:07:09.099Z,6.50
2019-04-07T22:12:12.973Z,6.50
2019-04-07T22:17:16.544Z,6.40
2019-04-07T22:22:20.235Z,6.40
2019-04-07T22:27:26.076Z,6.20
2019-04-07T22:32:29.185Z,6.20
2019-04-07T22:37:33.173Z,6.20
2019-04-07T22:42:37.167Z,6.00
2019-04-07T22:47:40.945Z,6.00
2019-04-07T22:52:47.352Z,6.00
2019-04-07T22:57:49.783Z,6.00
2019-04-07T23:02:54.121Z,6.00
2019-04-07T23:07:57.829Z,6.00
2019-04-07T23:13:01.566Z,5.90
2019-04-07T23:18:05.467Z,5.80
2019-04-07T23:23:09.122Z,5.20
2019-04-07T23:28:12.857Z,5.00
2019-04-07T23:33:16.490Z,5.10
2019-04-07T23:38:20.136Z,5.30
2019-04-07T23:43:23.829Z,5.50
2019-04-07T23:48:28.396Z,5.40
2019-04-07T23:54:07.275Z,5.40
2019-04-07T23:59:12.572Z,5.20
